<?xml version="1.0" encoding="utf-8"?>
<gpx xmlns:xsi="http://www.w3.org/2001/XMLSchema-instance" xmlns:xsd="http://www.w3.org/2001/XMLSchema" version="1.1" creator="Shapelink.com" xmlns="http://www.topografix.com/GPX/1/1" xmlns:gpxtpx="http://www.garmin.com/xmlschemas/TrackPointExtension/v1">
  <metadata>
    <name>Övrigt 2.68 km, 2018-06-17</name>
    <desc></desc>
    <author><name>Marian Moron</name></author> 
    <time>2018-06-17T22:51:16Z</time>
  </metadata>
  <trk>
    <name>Övrigt 2.68 km, 2018-06-17</name>
    <trkseg>
      <trkpt lat="51.229163032507" lon="4.458115351152">
        <ele>0</ele>
        <time>2018-06-17T22:51:16Z</time>
      </trkpt>
      <trkpt lat="51.228980642363" lon="4.45813563535">
        <ele>0</ele>
        <time>2018-06-17T22:51:50Z</time>
      </trkpt>
      <trkpt lat="51.228822727367" lon="4.458117027532">
        <ele>0</ele>
        <time>2018-06-17T22:52:22Z</time>
      </trkpt>
      <trkpt lat="51.228696495953" lon="4.458173186262">
        <ele>0</ele>
        <time>2018-06-17T22:52:43Z</time>
      </trkpt>
      <trkpt lat="51.228517207112" lon="4.45823118901">
        <ele>0</ele>
        <time>2018-06-17T22:53:01Z</time>
      </trkpt>
      <trkpt lat="51.22840254272" lon="4.458348116515">
        <ele>0</ele>
        <time>2018-06-17T22:53:22Z</time>
      </trkpt>
      <trkpt lat="51.228093837343" lon="4.458537631274">
        <ele>0</ele>
        <time>2018-06-17T22:53:53Z</time>
      </trkpt>
      <trkpt lat="51.22773031434" lon="4.458734270648">
        <ele>0</ele>
        <time>2018-06-17T22:54:27Z</time>
      </trkpt>
      <trkpt lat="51.22730116106" lon="4.458949266383">
        <ele>0</ele>
        <time>2018-06-17T22:55:03Z</time>
      </trkpt>
      <trkpt lat="51.227235195507" lon="4.458979860318">
        <ele>0</ele>
        <time>2018-06-17T22:55:14Z</time>
      </trkpt>
      <trkpt lat="51.226992539502" lon="4.459096787823">
        <ele>0.4</ele>
        <time>2018-06-17T22:55:45Z</time>
      </trkpt>
      <trkpt lat="51.226877288377" lon="4.459172727837">
        <ele>0.6</ele>
        <time>2018-06-17T22:56:04Z</time>
      </trkpt>
      <trkpt lat="51.226847029718" lon="4.459189072542">
        <ele>2</ele>
        <time>2018-06-17T22:56:39Z</time>
      </trkpt>
      <trkpt lat="51.226552154476" lon="4.45944572632">
        <ele>0</ele>
        <time>2018-06-17T22:57:07Z</time>
      </trkpt>
      <trkpt lat="51.226308325005" lon="4.459601545841">
        <ele>0</ele>
        <time>2018-06-17T22:57:25Z</time>
      </trkpt>
      <trkpt lat="51.226310085204" lon="4.459625266618">
        <ele>0</ele>
        <time>2018-06-17T22:57:27Z</time>
      </trkpt>
      <trkpt lat="51.226298182906" lon="4.459814110825">
        <ele>0</ele>
        <time>2018-06-17T22:57:38Z</time>
      </trkpt>
      <trkpt lat="51.226334476533" lon="4.460113596112">
        <ele>2</ele>
        <time>2018-06-17T22:58:00Z</time>
      </trkpt>
      <trkpt lat="51.22625929089" lon="4.459903126603">
        <ele>3.6</ele>
        <time>2018-06-17T22:58:11Z</time>
      </trkpt>
      <trkpt lat="51.226189134387" lon="4.459870269555">
        <ele>3</ele>
        <time>2018-06-17T22:58:16Z</time>
      </trkpt>
      <trkpt lat="51.225774481794" lon="4.460033800424">
        <ele>4.4</ele>
        <time>2018-06-17T22:58:47Z</time>
      </trkpt>
      <trkpt lat="51.225484551873" lon="4.460291879125">
        <ele>4</ele>
        <time>2018-06-17T22:59:24Z</time>
      </trkpt>
      <trkpt lat="51.225064199588" lon="4.460542497935">
        <ele>4.2</ele>
        <time>2018-06-17T23:00:03Z</time>
      </trkpt>
      <trkpt lat="51.224827746189" lon="4.460614833732">
        <ele>12</ele>
        <time>2018-06-17T23:00:21Z</time>
      </trkpt>
      <trkpt lat="51.224658767085" lon="4.460690019375">
        <ele>17.8</ele>
        <time>2018-06-17T23:00:40Z</time>
      </trkpt>
      <trkpt lat="51.224376464693" lon="4.460945415868">
        <ele>16.2</ele>
        <time>2018-06-17T23:01:11Z</time>
      </trkpt>
      <trkpt lat="51.22427697154" lon="4.461080364458">
        <ele>18.8</ele>
        <time>2018-06-17T23:01:29Z</time>
      </trkpt>
      <trkpt lat="51.223944880662" lon="4.461239369101">
        <ele>7.2</ele>
        <time>2018-06-17T23:02:09Z</time>
      </trkpt>
      <trkpt lat="51.223849243183" lon="4.461259988575">
        <ele>9</ele>
        <time>2018-06-17T23:02:26Z</time>
      </trkpt>
      <trkpt lat="51.223667020677" lon="4.461385968532">
        <ele>6.4</ele>
        <time>2018-06-17T23:02:46Z</time>
      </trkpt>
      <trkpt lat="51.223383796276" lon="4.461640023921">
        <ele>13</ele>
        <time>2018-06-17T23:03:17Z</time>
      </trkpt>
      <trkpt lat="51.222983225275" lon="4.461956273008">
        <ele>8</ele>
        <time>2018-06-17T23:03:50Z</time>
      </trkpt>
      <trkpt lat="51.222923378509" lon="4.46196951641">
        <ele>6.2</ele>
        <time>2018-06-17T23:03:58Z</time>
      </trkpt>
      <trkpt lat="51.222499589645" lon="4.462237485753">
        <ele>10.4</ele>
        <time>2018-06-17T23:04:35Z</time>
      </trkpt>
      <trkpt lat="51.222091977848" lon="4.46255038208">
        <ele>0</ele>
        <time>2018-06-17T23:05:31Z</time>
      </trkpt>
      <trkpt lat="51.222194656123" lon="4.462762779426">
        <ele>0.4</ele>
        <time>2018-06-17T23:06:05Z</time>
      </trkpt>
      <trkpt lat="51.222353576947" lon="4.46291834749">
        <ele>0</ele>
        <time>2018-06-17T23:06:29Z</time>
      </trkpt>
      <trkpt lat="51.222626910706" lon="4.463447413018">
        <ele>0</ele>
        <time>2018-06-17T23:07:03Z</time>
      </trkpt>
      <trkpt lat="51.223030750648" lon="4.463704066796">
        <ele>0</ele>
        <time>2018-06-17T23:07:47Z</time>
      </trkpt>
      <trkpt lat="51.223198723924" lon="4.463799955732">
        <ele>5</ele>
        <time>2018-06-17T23:08:04Z</time>
      </trkpt>
      <trkpt lat="51.223371307245" lon="4.464032218181">
        <ele>7.6</ele>
        <time>2018-06-17T23:08:21Z</time>
      </trkpt>
      <trkpt lat="51.223420928093" lon="4.46399961259">
        <ele>7.6</ele>
        <time>2018-06-17T23:08:25Z</time>
      </trkpt>
      <trkpt lat="51.223643383719" lon="4.464216200886">
        <ele>6.2</ele>
        <time>2018-06-17T23:08:50Z</time>
      </trkpt>
      <trkpt lat="51.223766681468" lon="4.464366907448">
        <ele>4.8</ele>
        <time>2018-06-17T23:09:02Z</time>
      </trkpt>
      <trkpt lat="51.224039512313" lon="4.464594559852">
        <ele>2.2</ele>
        <time>2018-06-17T23:09:30Z</time>
      </trkpt>
      <trkpt lat="51.224250400917" lon="4.464829755966">
        <ele>4.2</ele>
        <time>2018-06-17T23:09:51Z</time>
      </trkpt>
      <trkpt lat="51.224640829819" lon="4.465218759945">
        <ele>6</ele>
        <time>2018-06-17T23:10:25Z</time>
      </trkpt>
      <trkpt lat="51.224676871989" lon="4.465252203726">
        <ele>5.8</ele>
        <time>2018-06-17T23:10:28Z</time>
      </trkpt>
      <trkpt lat="51.225061433561" lon="4.465626874656">
        <ele>6.2</ele>
        <time>2018-06-17T23:11:06Z</time>
      </trkpt>
      <trkpt lat="51.225209960829" lon="4.465708598181">
        <ele>4.2</ele>
        <time>2018-06-17T23:11:35Z</time>
      </trkpt>
      <trkpt lat="51.225631318942" lon="4.46600037212">
        <ele>6.4</ele>
        <time>2018-06-17T23:12:15Z</time>
      </trkpt>
      <trkpt lat="51.225885541969" lon="4.466098272712">
        <ele>4</ele>
        <time>2018-06-17T23:12:39Z</time>
      </trkpt>
      <trkpt lat="51.226149823276" lon="4.466139846936">
        <ele>3.8</ele>
        <time>2018-06-17T23:13:07Z</time>
      </trkpt>
      <trkpt lat="51.226283095486" lon="4.466165579369">
        <ele>4.6</ele>
        <time>2018-06-17T23:13:21Z</time>
      </trkpt>
      <trkpt lat="51.22641603242" lon="4.466215200217">
        <ele>7.2</ele>
        <time>2018-06-17T23:13:35Z</time>
      </trkpt>
      <trkpt lat="51.226870079943" lon="4.466344197658">
        <ele>5.6</ele>
        <time>2018-06-17T23:14:17Z</time>
      </trkpt>
      <trkpt lat="51.226967645259" lon="4.466335229025">
        <ele>4.8</ele>
        <time>2018-06-17T23:14:27Z</time>
      </trkpt>
      <trkpt lat="51.227268723107" lon="4.466279070295">
        <ele>4.6</ele>
        <time>2018-06-17T23:14:52Z</time>
      </trkpt>
      <trkpt lat="51.227267465822" lon="4.466259875744">
        <ele>6.4</ele>
        <time>2018-06-17T23:15:04Z</time>
      </trkpt>
      <trkpt lat="51.22734642332" lon="4.466252332034">
        <ele>7</ele>
        <time>2018-06-17T23:15:10Z</time>
      </trkpt>
      <trkpt lat="51.227380370015" lon="4.466267084178">
        <ele>6.2</ele>
        <time>2018-06-17T23:15:22Z</time>
      </trkpt>
      <trkpt lat="51.227514983329" lon="4.466318465225">
        <ele>6.2</ele>
        <time>2018-06-17T23:15:36Z</time>
      </trkpt>
      <trkpt lat="51.227586648574" lon="4.466427178468">
        <ele>6.6</ele>
        <time>2018-06-17T23:15:44Z</time>
      </trkpt>
      <trkpt lat="51.227691170867" lon="4.466446624476">
        <ele>6</ele>
        <time>2018-06-17T23:15:59Z</time>
      </trkpt>
      <trkpt lat="51.228072547317" lon="4.466136326538">
        <ele>4.6</ele>
        <time>2018-06-17T23:16:39Z</time>
      </trkpt>
      <trkpt lat="51.22814605658" lon="4.466055105927">
        <ele>3.2</ele>
        <time>2018-06-17T23:16:50Z</time>
      </trkpt>
      <trkpt lat="51.228392232983" lon="4.46577489901">
        <ele>3</ele>
        <time>2018-06-17T23:17:23Z</time>
      </trkpt>
      <trkpt lat="51.22858945909" lon="4.465188249829">
        <ele>0</ele>
        <time>2018-06-17T23:18:01Z</time>
      </trkpt>
      <trkpt lat="51.22857856262" lon="4.465082805527">
        <ele>0</ele>
        <time>2018-06-17T23:18:06Z</time>
      </trkpt>
      <trkpt lat="51.228564564847" lon="4.464880801737">
        <ele>0</ele>
        <time>2018-06-17T23:18:16Z</time>
      </trkpt>
      <trkpt lat="51.228584178493" lon="4.464319717351">
        <ele>8</ele>
        <time>2018-06-17T23:18:44Z</time>
      </trkpt>
      <trkpt lat="51.228614018057" lon="4.464250818133">
        <ele>8.4</ele>
        <time>2018-06-17T23:18:51Z</time>
      </trkpt>
      <trkpt lat="51.228715019952" lon="4.46415048679">
        <ele>8</ele>
        <time>2018-06-17T23:19:02Z</time>
      </trkpt>
      <trkpt lat="51.228759024927" lon="4.464145122374">
        <ele>6.6</ele>
        <time>2018-06-17T23:19:09Z</time>
      </trkpt>
      <trkpt lat="51.228873856957" lon="4.464139003587">
        <ele>8</ele>
        <time>2018-06-17T23:19:27Z</time>
      </trkpt>
      <trkpt lat="51.229057420567" lon="4.464144535641">
        <ele>7.4</ele>
        <time>2018-06-17T23:19:41Z</time>
      </trkpt>
      <trkpt lat="51.22911165146" lon="4.464143278356">
        <ele>7.2</ele>
        <time>2018-06-17T23:19:50Z</time>
      </trkpt>
      <trkpt lat="51.229410717652" lon="4.464123413253">
        <ele>4.8</ele>
        <time>2018-06-17T23:20:15Z</time>
      </trkpt>
      <trkpt lat="51.229449609668" lon="4.464040264805">
        <ele>4</ele>
        <time>2018-06-17T23:20:25Z</time>
      </trkpt>
      <trkpt lat="51.229532087564" lon="4.464039175158">
        <ele>3.4</ele>
        <time>2018-06-17T23:20:36Z</time>
      </trkpt>
      <trkpt lat="51.229633760011" lon="4.464024842109">
        <ele>3.6</ele>
        <time>2018-06-17T23:21:10Z</time>
      </trkpt>
      <trkpt lat="51.229948081261" lon="4.463965665895">
        <ele>4.4</ele>
        <time>2018-06-17T23:22:06Z</time>
      </trkpt>
      <trkpt lat="51.230008347122" lon="4.463961726402">
        <ele>3.8</ele>
        <time>2018-06-17T23:22:16Z</time>
      </trkpt>
      <trkpt lat="51.230320991992" lon="4.463606836756">
        <ele>5.8</ele>
        <time>2018-06-17T23:23:04Z</time>
      </trkpt>
      <trkpt lat="51.230317890689" lon="4.463557215908">
        <ele>6.2</ele>
        <time>2018-06-17T23:23:08Z</time>
      </trkpt>
      <trkpt lat="51.230158383132" lon="4.462895632541">
        <ele>0</ele>
        <time>2018-06-17T23:23:50Z</time>
      </trkpt>
      <trkpt lat="51.230081856385" lon="4.462595141426">
        <ele>1.8</ele>
        <time>2018-06-17T23:24:11Z</time>
      </trkpt>
      <trkpt lat="51.23010071566" lon="4.462078900205">
        <ele>2.4</ele>
        <time>2018-06-17T23:24:40Z</time>
      </trkpt>
      <trkpt lat="51.230139523857" lon="4.462058029274">
        <ele>3.4</ele>
        <time>2018-06-17T23:24:45Z</time>
      </trkpt>
      <trkpt lat="51.230425849561" lon="4.461944705986">
        <ele>13.4</ele>
        <time>2018-06-17T23:25:25Z</time>
      </trkpt>
      <trkpt lat="51.230711001799" lon="4.461833645811">
        <ele>11.2</ele>
        <time>2018-06-17T23:26:07Z</time>
      </trkpt>
      <trkpt lat="51.231004452118" lon="4.461582440268">
        <ele>7.2</ele>
        <time>2018-06-17T23:26:59Z</time>
      </trkpt>
      <trkpt lat="51.230975199287" lon="4.461542626243">
        <ele>6.8</ele>
        <time>2018-06-17T23:27:04Z</time>
      </trkpt>
      <trkpt lat="51.230895235961" lon="4.461269879217">
        <ele>5.6</ele>
        <time>2018-06-17T23:27:26Z</time>
      </trkpt>
      <trkpt lat="51.230744277942" lon="4.460605446004">
        <ele>0.6</ele>
        <time>2018-06-17T23:28:08Z</time>
      </trkpt>
      <trkpt lat="51.230742853019" lon="4.460359688696">
        <ele>3</ele>
        <time>2018-06-17T23:28:22Z</time>
      </trkpt>
      <trkpt lat="51.230694740913" lon="4.460187775927">
        <ele>4.6</ele>
        <time>2018-06-17T23:28:35Z</time>
      </trkpt>
      <trkpt lat="51.23064721554" lon="4.459977557875">
        <ele>4.6</ele>
        <time>2018-06-17T23:28:50Z</time>
      </trkpt>
      <trkpt lat="51.23060362966" lon="4.459897007816">
        <ele>1.2</ele>
        <time>2018-06-17T23:29:07Z</time>
      </trkpt>
      <trkpt lat="51.230447139587" lon="4.459567766784">
        <ele>0</ele>
        <time>2018-06-17T23:29:29Z</time>
      </trkpt>
      <trkpt lat="51.230447307225" lon="4.459482690499">
        <ele>0</ele>
        <time>2018-06-17T23:29:51Z</time>
      </trkpt>
      <trkpt lat="51.230426101018" lon="4.45930658678">
        <ele>1</ele>
        <time>2018-06-17T23:30:06Z</time>
      </trkpt>
      <trkpt lat="51.230349155176" lon="4.45896879621">
        <ele>0</ele>
        <time>2018-06-17T23:30:27Z</time>
      </trkpt>
      <trkpt lat="51.230153353992" lon="4.459014980479">
        <ele>2</ele>
        <time>2018-06-17T23:30:44Z</time>
      </trkpt>
      <trkpt lat="51.229916062403" lon="4.458492117557">
        <ele>0</ele>
        <time>2018-06-17T23:31:21Z</time>
      </trkpt>
      <trkpt lat="51.229832327222" lon="4.457950898274">
        <ele>1</ele>
        <time>2018-06-17T23:31:52Z</time>
      </trkpt>
      <trkpt lat="51.229719925943" lon="4.457984509693">
        <ele>6.2</ele>
        <time>2018-06-17T23:32:04Z</time>
      </trkpt>
    </trkseg>
  </trk>
</gpx>